| time (UTC) | temp C | wind direction | speed KPH | gust KPH | rain 1hr cm | rain 24hr cm | rain mn cm | humidity % | barometer mb |
| 20260507160815 | 16 | 314 | 1.6 | 6.4 | 0.00 | 0.00 | 0.00 | 85 | 1016.1 |
| 20260507160616 | 16 | 30 | 3.2 | 6.4 | 0.00 | 0.00 | 0.00 | 86 | 1016.3 |
| 20260507155816 | 16 | 202 | 1.6 | 6.4 | 0.00 | 0.00 | 0.00 | 88 | 1016.3 |
| 20260507155315 | 16 | 238 | 3.2 | 9.7 | 0.00 | 0.00 | 0.00 | 88 | 1016.4 |
| 20260507154814 | 16 | 300 | 3.2 | 9.7 | 0.00 | 0.00 | 0.00 | 88 | 1016.3 |
| 20260507154315 | 16 | 276 | 4.8 | 8.0 | 0.00 | 0.00 | 0.00 | 88 | 1016.4 |
| 20260507153815 | 15 | 120 | 0.0 | 3.2 | 0.00 | 0.00 | 0.00 | 88 | 1016.3 |
| 20260507153314 | 15 | 223 | 0.0 | 3.2 | 0.00 | 0.00 | 0.00 | 88 | 1016.2 |
| 20260507152910 | 15 | 313 | 3.2 | 4.8 | 0.00 | 0.00 | 0.00 | 88 | 1016.2 |
| 20260507152854 | 15 | 44 | 0.0 | 4.8 | 0.00 | 0.00 | 0.00 | 88 | 1016.3 |
| 20260507151813 | 15 | 271 | 1.6 | 4.8 | 0.00 | 0.00 | 0.00 | 88 | 1016.2 |
| 20260507151314 | 15 | 28 | 0.0 | 6.4 | 0.00 | 0.00 | 0.00 | 88 | 1016.2 |
| 20260507150813 | 15 | 319 | 3.2 | 6.4 | 0.00 | 0.00 | 0.00 | 88 | 1016.2 |
| 20260507150313 | 15 | 117 | 0.0 | 0.0 | 0.00 | 0.00 | 0.00 | 88 | 1016.1 |
| 20260507145813 | 15 | 282 | 0.0 | 0.0 | 0.00 | 0.00 | 0.00 | 88 | 1016.0 |
| 20260507145314 | 15 | 302 | 0.0 | 0.0 | 0.00 | 0.00 | 0.00 | 88 | 1016.1 |
| 20260507144813 | 15 | 35 | 0.0 | 0.0 | 0.00 | 0.00 | 0.00 | 88 | 1016.1 |
| 20260507144314 | 15 | 10 | 0.0 | 0.0 | 0.00 | 0.00 | 0.00 | 88 | 1016.1 |
| 20260507143814 | 14 | 42 | 0.0 | 0.0 | 0.00 | 0.00 | 0.00 | 88 | 1016.0 |
| 20260507143312 | 14 | 34 | 0.0 | 0.0 | 0.00 | 0.00 | 0.00 | 88 | 1016.0 |
| 20260507142815 | 14 | 48 | 0.0 | 0.0 | 0.00 | 0.00 | 0.00 | 88 | 1015.9 |
| 20260507142313 | 14 | 62 | 0.0 | 0.0 | 0.00 | 0.00 | 0.00 | 88 | 1015.9 |
| 20260507142107 | 14 | 37 | 0.0 | 0.0 | 0.00 | 0.00 | 0.00 | 88 | 1015.8 |
| 20260507141602 | 14 | 14 | 0.0 | 0.0 | 0.00 | 0.00 | 0.00 | 88 | 1015.9 |
| 20260507140812 | 14 | 27 | 0.0 | 0.0 | 0.00 | 0.00 | 0.00 | 88 | 1015.9 |
| 20260507140313 | 14 | 341 | 0.0 | 0.0 | 0.00 | 0.00 | 0.00 | 88 | 1015.7 |
| 20260507135813 | 13 | 38 | 0.0 | 0.0 | 0.00 | 0.00 | 0.00 | 88 | 1015.7 |
| 20260507135311 | 13 | 41 | 0.0 | 0.0 | 0.00 | 0.00 | 0.00 | 88 | 1015.6 |
| 20260507134812 | 13 | 41 | 0.0 | 0.0 | 0.00 | 0.00 | 0.00 | 88 | 1015.6 |
| 20260507134312 | 13 | 44 | 0.0 | 0.0 | 0.00 | 0.00 | 0.00 | 88 | 1015.7 |
| 20260507133812 | 13 | 44 | 0.0 | 0.0 | 0.00 | 0.00 | 0.00 | 88 | 1015.6 |
| 20260507133311 | 13 | 44 | 0.0 | 0.0 | 0.00 | 0.00 | 0.00 | 88 | 1015.6 |
| 20260507132811 | 13 | 37 | 0.0 | 0.0 | 0.00 | 0.00 | 0.00 | 88 | 1015.6 |
| 20260507132311 | 13 | 333 | 0.0 | 0.0 | 0.00 | 0.00 | 0.00 | 87 | 1015.6 |
| 20260507131811 | 13 | 30 | 0.0 | 0.0 | 0.00 | 0.00 | 0.00 | 87 | 1015.5 |
| 20260507131311 | 13 | 24 | 0.0 | 0.0 | 0.00 | 0.00 | 0.00 | 88 | 1015.6 |
| 20260507130812 | 13 | 4 | 0.0 | 0.0 | 0.00 | 0.00 | 0.00 | 87 | 1015.6 |
| 20260507130311 | 13 | 27 | 0.0 | 0.0 | 0.00 | 0.00 | 0.00 | 87 | 1015.5 |
| 20260507130105 | 13 | 27 | 0.0 | 0.0 | 0.00 | 0.00 | 0.00 | 87 | 1015.6 |
| 20260507125310 | 12 | 27 | 0.0 | 0.0 | 0.00 | 0.00 | 0.00 | 87 | 1015.4 |
| 20260507124810 | 12 | 27 | 0.0 | 0.0 | 0.00 | 0.00 | 0.00 | 87 | 1015.5 |
| 20260507124311 | 12 | 27 | 0.0 | 0.0 | 0.00 | 0.00 | 0.00 | 87 | 1015.3 |
| 20260507123810 | 12 | 27 | 0.0 | 0.0 | 0.00 | 0.00 | 0.00 | 87 | 1015.3 |
| 20260507123310 | 12 | 27 | 0.0 | 0.0 | 0.00 | 0.00 | 0.00 | 87 | 1015.2 |
| 20260507123103 | 12 | 27 | 0.0 | 0.0 | 0.00 | 0.00 | 0.00 | 87 | 1015.3 |
| 20260507122310 | 12 | 27 | 0.0 | 0.0 | 0.00 | 0.00 | 0.00 | 87 | 1015.3 |
| 20260507122102 | 12 | 27 | 0.0 | 0.0 | 0.00 | 0.00 | 0.00 | 87 | 1015.2 |
| 20260507121310 | 12 | 27 | 0.0 | 0.0 | 0.00 | 0.00 | 0.00 | 87 | 1015.2 |
| 20260507120809 | 12 | 27 | 0.0 | 0.0 | 0.00 | 0.00 | 0.00 | 87 | 1015.2 |
| 20260507120309 | 12 | 27 | 0.0 | 0.0 | 0.00 | 0.00 | 0.00 | 87 | 1015.2 |
| 20260507115809 | 12 | 27 | 0.0 | 0.0 | 0.00 | 0.00 | 0.00 | 87 | 1015.1 |
| 20260507115308 | 12 | 27 | 0.0 | 0.0 | 0.00 | 0.00 | 0.00 | 87 | 1015.3 |
| 20260507114809 | 12 | 27 | 0.0 | 0.0 | 0.00 | 0.00 | 0.00 | 87 | 1015.3 |
| 20260507114343 | 12 | 27 | 0.0 | 0.0 | 0.00 | 0.00 | 0.00 | 87 | 1015.2 |
| 20260507113309 | 12 | 27 | 0.0 | 0.0 | 0.00 | 0.00 | 0.00 | 87 | 1015.2 |
| 20260507112808 | 12 | 27 | 0.0 | 0.0 | 0.00 | 0.00 | 0.00 | 87 | 1015.3 |
| 20260507112311 | 12 | 27 | 0.0 | 0.0 | 0.00 | 0.00 | 0.00 | 86 | 1015.2 |
| 20260507111807 | 12 | 27 | 0.0 | 0.0 | 0.00 | 0.00 | 0.00 | 87 | 1015.2 |
| 20260507111606 | 12 | 27 | 0.0 | 0.0 | 0.00 | 0.00 | 0.00 | 87 | 1015.3 |
| 20260507111103 | 13 | 27 | 0.0 | 0.0 | 0.00 | 0.00 | 0.00 | 86 | 1015.3 |
| 20260507110308 | 13 | 27 | 0.0 | 0.0 | 0.00 | 0.00 | 0.00 | 86 | 1015.4 |
| 20260507105807 | 13 | 27 | 0.0 | 0.0 | 0.00 | 0.00 | 0.00 | 86 | 1015.4 |
| 20260507105308 | 13 | 27 | 0.0 | 0.0 | 0.00 | 0.00 | 0.00 | 86 | 1015.5 |
| 20260507104808 | 13 | 27 | 0.0 | 0.0 | 0.00 | 0.00 | 0.00 | 86 | 1015.4 |
| 20260507104307 | 13 | 27 | 0.0 | 0.0 | 0.00 | 0.00 | 0.00 | 86 | 1015.4 |
| 20260507103807 | 13 | 27 | 0.0 | 0.0 | 0.00 | 0.00 | 0.00 | 86 | 1015.4 |
| 20260507103307 | 13 | 27 | 0.0 | 0.0 | 0.00 | 0.00 | 0.00 | 86 | 1015.5 |
| 20260507102807 | 13 | 27 | 0.0 | 0.0 | 0.00 | 0.00 | 0.00 | 86 | 1015.5 |
| 20260507102307 | 13 | 27 | 0.0 | 0.0 | 0.00 | 0.00 | 0.00 | 86 | 1015.6 |
| 20260507101808 | 13 | 27 | 0.0 | 0.0 | 0.00 | 0.00 | 0.00 | 86 | 1015.6 |
| 20260507101307 | 13 | 27 | 0.0 | 0.0 | 0.00 | 0.00 | 0.00 | 86 | 1015.7 |
| 20260507101101 | 13 | 27 | 0.0 | 0.0 | 0.00 | 0.00 | 0.00 | 86 | 1015.7 |
| 20260507100306 | 13 | 27 | 0.0 | 0.0 | 0.00 | 0.00 | 0.00 | 86 | 1015.8 |
| 20260507095806 | 13 | 27 | 0.0 | 0.0 | 0.00 | 0.00 | 0.00 | 86 | 1015.7 |
| 20260507095306 | 13 | 27 | 0.0 | 0.0 | 0.00 | 0.00 | 0.00 | 86 | 1015.7 |
| 20260507095101 | 13 | 31 | 0.0 | 0.0 | 0.00 | 0.00 | 0.00 | 86 | 1015.7 |
| 20260507094305 | 13 | 31 | 0.0 | 0.0 | 0.00 | 0.00 | 0.00 | 85 | 1015.8 |
| 20260507094059 | 13 | 31 | 0.0 | 0.0 | 0.00 | 0.00 | 0.00 | 85 | 1015.8 |
| 20260507093306 | 13 | 34 | 0.0 | 0.0 | 0.00 | 0.00 | 0.00 | 85 | 1015.9 |
| 20260507092806 | 13 | 35 | 0.0 | 0.0 | 0.00 | 0.00 | 0.00 | 85 | 1015.8 |
| 20260507092307 | 13 | 35 | 0.0 | 0.0 | 0.00 | 0.00 | 0.00 | 85 | 1015.8 |
| 20260507091805 | 13 | 35 | 0.0 | 0.0 | 0.00 | 0.00 | 0.00 | 85 | 1016.0 |
| 20260507091307 | 13 | 35 | 0.0 | 0.0 | 0.00 | 0.00 | 0.00 | 85 | 1016.0 |
| 20260507090805 | 13 | 35 | 0.0 | 0.0 | 0.00 | 0.00 | 0.00 | 85 | 1016.0 |
| 20260507090305 | 13 | 35 | 0.0 | 0.0 | 0.00 | 0.00 | 0.00 | 85 | 1016.1 |
| 20260507085805 | 13 | 35 | 0.0 | 0.0 | 0.00 | 0.00 | 0.00 | 85 | 1016.2 |
| 20260507085306 | 13 | 35 | 0.0 | 0.0 | 0.00 | 0.00 | 0.00 | 85 | 1016.2 |
| 20260507084805 | 13 | 35 | 0.0 | 0.0 | 0.00 | 0.00 | 0.00 | 85 | 1016.3 |
| 20260507084305 | 13 | 35 | 0.0 | 0.0 | 0.00 | 0.00 | 0.00 | 85 | 1016.3 |
| 20260507083805 | 13 | 35 | 0.0 | 0.0 | 0.00 | 0.00 | 0.00 | 85 | 1016.3 |
| 20260507083305 | 13 | 354 | 0.0 | 0.0 | 0.00 | 0.00 | 0.00 | 85 | 1016.4 |
| 20260507082805 | 13 | 354 | 0.0 | 0.0 | 0.00 | 0.00 | 0.00 | 85 | 1016.4 |
| 20260507082306 | 13 | 354 | 0.0 | 0.0 | 0.00 | 0.00 | 0.00 | 84 | 1016.5 |
| 20260507081803 | 14 | 354 | 0.0 | 0.0 | 0.00 | 0.00 | 0.00 | 84 | 1016.5 |
| 20260507081304 | 13 | 354 | 0.0 | 0.0 | 0.00 | 0.00 | 0.00 | 84 | 1016.5 |
| 20260507081058 | 14 | 354 | 0.0 | 0.0 | 0.00 | 0.00 | 0.00 | 84 | 1016.5 |
| 20260507080304 | 14 | 354 | 0.0 | 0.0 | 0.00 | 0.00 | 0.00 | 84 | 1016.6 |
| 20260507075803 | 14 | 319 | 0.0 | 0.0 | 0.00 | 0.00 | 0.00 | 84 | 1016.6 |
| 20260507075352 | 14 | 319 | 0.0 | 0.0 | 0.00 | 0.00 | 0.00 | 84 | 1016.6 |
| 20260507075336 | 14 | 319 | 0.0 | 0.0 | 0.00 | 0.00 | 0.00 | 84 | 1016.7 |
| 20260507074302 | 14 | 319 | 0.0 | 0.0 | 0.00 | 0.00 | 0.00 | 84 | 1016.7 |
| 20260507073803 | 14 | 319 | 0.0 | 0.0 | 0.00 | 0.00 | 0.00 | 84 | 1016.7 |
| 20260507073555 | 14 | 319 | 0.0 | 0.0 | 0.00 | 0.00 | 0.00 | 83 | 1016.7 |
| 20260507072802 | 14 | 319 | 0.0 | 0.0 | 0.00 | 0.00 | 0.00 | 83 | 1016.6 |
| 20260507072306 | 14 | 319 | 0.0 | 0.0 | 0.00 | 0.00 | 0.00 | 84 | 1016.7 |
| 20260507071802 | 14 | 0 | 0.0 | 0.0 | 0.00 | 0.00 | 0.00 | 84 | 1016.7 |
| 20260507071303 | 14 | 0 | 0.0 | 0.0 | 0.00 | 0.00 | 0.00 | 83 | 1016.7 |
| 20260507070803 | 14 | 0 | 0.0 | 0.0 | 0.00 | 0.00 | 0.00 | 83 | 1016.8 |
| 20260507070303 | 15 | 0 | 0.0 | 0.0 | 0.00 | 0.00 | 0.00 | 83 | 1016.8 |
| 20260507065803 | 14 | 0 | 0.0 | 0.0 | 0.00 | 0.00 | 0.00 | 83 | 1016.8 |
| 20260507065306 | 14 | 0 | 0.0 | 0.0 | 0.00 | 0.00 | 0.00 | 83 | 1016.9 |
| 20260507064802 | 15 | 0 | 0.0 | 0.0 | 0.00 | 0.00 | 0.00 | 83 | 1016.9 |
| 20260507064555 | 15 | 317 | 0.0 | 0.0 | 0.00 | 0.00 | 0.00 | 83 | 1017.0 |
| 20260507063805 | 15 | 317 | 0.0 | 1.6 | 0.00 | 0.00 | 0.00 | 83 | 1016.9 |
| 20260507063305 | 15 | 300 | 0.0 | 1.6 | 0.00 | 0.00 | 0.00 | 82 | 1017.0 |
| 20260507062802 | 15 | 316 | 0.0 | 0.0 | 0.00 | 0.00 | 0.00 | 83 | 1017.0 |
| 20260507062556 | 15 | 316 | 0.0 | 0.0 | 0.00 | 0.00 | 0.00 | 83 | 1017.0 |
| 20260507061802 | 15 | 316 | 0.0 | 0.0 | 0.00 | 0.00 | 0.00 | 83 | 1017.0 |
| 20260507061302 | 15 | 316 | 0.0 | 0.0 | 0.00 | 0.00 | 0.00 | 82 | 1017.0 |
| 20260507060802 | 15 | 329 | 0.0 | 1.6 | 0.00 | 0.00 | 0.00 | 82 | 1017.0 |
| 20260507060302 | 15 | 329 | 0.0 | 1.6 | 0.00 | 0.00 | 0.00 | 83 | 1017.0 |
| 20260507060056 | 15 | 295 | 0.0 | 0.0 | 0.00 | 0.00 | 0.00 | 83 | 1017.0 |
| 20260507055349 | 15 | 295 | 0.0 | 3.2 | 0.00 | 0.00 | 0.00 | 82 | 1016.9 |
| 20260507055337 | 15 | 295 | 0.0 | 0.0 | 0.00 | 0.00 | 0.00 | 83 | 1017.0 |
| 20260507054336 | 15 | 295 | 0.0 | 4.8 | 0.00 | 0.00 | 0.00 | 82 | 1016.9 |
| 20260507053302 | 15 | 282 | 1.6 | 4.8 | 0.00 | 0.00 | 0.00 | 82 | 1016.9 |
| 20260507052804 | 15 | 314 | 0.0 | 3.2 | 0.00 | 0.00 | 0.00 | 82 | 1016.9 |
| 20260507052306 | 15 | 307 | 0.0 | 3.2 | 0.00 | 0.00 | 0.00 | 82 | 1017.0 |
| 20260507051802 | 15 | 324 | 1.6 | 4.8 | 0.00 | 0.00 | 0.00 | 81 | 1016.9 |
| 20260507051555 | 15 | 309 | 1.6 | 4.8 | 0.00 | 0.00 | 0.00 | 81 | 1016.9 |
| 20260507050803 | 15 | 292 | 1.6 | 4.8 | 0.00 | 0.00 | 0.00 | 81 | 1016.9 |
| 20260507050302 | 15 | 309 | 0.0 | 1.6 | 0.00 | 0.00 | 0.00 | 81 | 1016.9 |
| 20260507045802 | 15 | 343 | 0.0 | 1.6 | 0.00 | 0.00 | 0.00 | 81 | 1016.8 |
| 20260507045306 | 15 | 293 | 0.0 | 4.8 | 0.00 | 0.00 | 0.00 | 81 | 1016.9 |
| 20260507044801 | 15 | 323 | 0.0 | 4.8 | 0.00 | 0.00 | 0.00 | 81 | 1016.8 |
| 20260507044305 | 16 | 320 | 0.0 | 4.8 | 0.00 | 0.00 | 0.00 | 80 | 1016.9 |
| 20260507044056 | 16 | 281 | 0.0 | 4.8 | 0.00 | 0.00 | 0.00 | 80 | 1016.9 |
| 20260507043302 | 16 | 306 | 0.0 | 4.8 | 0.00 | 0.00 | 0.00 | 80 | 1016.8 |
| 20260507042802 | 16 | 312 | 3.2 | 4.8 | 0.00 | 0.00 | 0.00 | 80 | 1016.8 |
| 20260507042306 | 16 | 268 | 1.6 | 4.8 | 0.00 | 0.00 | 0.00 | 79 | 1016.8 |
| 20260507041802 | 16 | 286 | 0.0 | 4.8 | 0.00 | 0.00 | 0.00 | 79 | 1016.7 |
| 20260507041302 | 16 | 279 | 0.0 | 4.8 | 0.00 | 0.00 | 0.00 | 79 | 1016.8 |
| 20260507040803 | 16 | 288 | 0.0 | 6.4 | 0.00 | 0.00 | 0.00 | 79 | 1016.6 |
| 20260507040303 | 16 | 292 | 3.2 | 6.4 | 0.00 | 0.00 | 0.00 | 79 | 1016.7 |
| 20260507035802 | 16 | 286 | 3.2 | 6.4 | 0.00 | 0.00 | 0.00 | 79 | 1016.6 |
| 20260507035306 | 16 | 290 | 0.0 | 6.4 | 0.00 | 0.00 | 0.00 | 78 | 1016.6 |
| 20260507034759 | 16 | 296 | 3.2 | 6.4 | 0.00 | 0.00 | 0.00 | 78 | 1016.5 |
| 20260507034258 | 16 | 299 | 3.2 | 6.4 | 0.00 | 0.00 | 0.00 | 78 | 1016.5 |
| 20260507033801 | 16 | 285 | 3.2 | 6.4 | 0.00 | 0.00 | 0.00 | 77 | 1016.5 |
| 20260507033258 | 16 | 262 | 3.2 | 4.8 | 0.00 | 0.00 | 0.00 | 77 | 1016.4 |
| 20260507032757 | 16 | 293 | 1.6 | 8.0 | 0.00 | 0.00 | 0.00 | 77 | 1016.4 |
| 20260507032257 | 17 | 278 | 4.8 | 8.0 | 0.00 | 0.00 | 0.00 | 77 | 1016.3 |
| 20260507031757 | 17 | 285 | 4.8 | 8.0 | 0.00 | 0.00 | 0.00 | 76 | 1016.3 |
| 20260507031259 | 17 | 265 | 4.8 | 11.3 | 0.00 | 0.00 | 0.00 | 76 | 1016.1 |
| 20260507030757 | 17 | 295 | 6.4 | 11.3 | 0.00 | 0.00 | 0.00 | 75 | 1016.1 |
| 20260507030257 | 17 | 298 | 6.4 | 11.3 | 0.00 | 0.00 | 0.00 | 74 | 1016.3 |
| 20260507030055 | 17 | 316 | 6.4 | 11.3 | 0.00 | 0.00 | 0.00 | 73 | 1016.2 |
| 20260507025255 | 17 | 295 | 3.2 | 9.7 | 0.00 | 0.00 | 0.00 | 73 | 1016.1 |
| 20260507024756 | 18 | 306 | 6.4 | 9.7 | 0.00 | 0.00 | 0.00 | 72 | 1016.2 |
| 20260507024256 | 18 | 303 | 6.4 | 9.7 | 0.00 | 0.00 | 0.00 | 72 | 1016.1 |
| 20260507023757 | 18 | 296 | 4.8 | 9.7 | 0.00 | 0.00 | 0.00 | 71 | 1016.0 |
| 20260507023256 | 18 | 293 | 6.4 | 11.3 | 0.00 | 0.00 | 0.00 | 70 | 1016.0 |
| 20260507022756 | 18 | 303 | 6.4 | 11.3 | 0.00 | 0.00 | 0.00 | 70 | 1015.9 |
| 20260507022256 | 18 | 268 | 4.8 | 16.1 | 0.00 | 0.00 | 0.00 | 69 | 1015.9 |
| 20260507021755 | 18 | 272 | 6.4 | 16.1 | 0.00 | 0.00 | 0.00 | 69 | 1016.0 |
| 20260507021255 | 19 | 323 | 8.0 | 11.3 | 0.00 | 0.00 | 0.00 | 68 | 1016.0 |
| 20260507020755 | 19 | 303 | 4.8 | 14.5 | 0.00 | 0.00 | 0.00 | 68 | 1015.9 |
| 20260507020255 | 19 | 272 | 8.0 | 17.7 | 0.00 | 0.00 | 0.00 | 68 | 1015.8 |
| 20260507015756 | 19 | 300 | 6.4 | 17.7 | 0.00 | 0.00 | 0.00 | 67 | 1015.8 |
| 20260507015255 | 19 | 316 | 6.4 | 14.5 | 0.00 | 0.00 | 0.00 | 67 | 1015.8 |
| 20260507014755 | 19 | 309 | 4.8 | 16.1 | 0.00 | 0.00 | 0.00 | 66 | 1015.8 |
| 20260507014256 | 19 | 309 | 9.7 | 16.1 | 0.00 | 0.00 | 0.00 | 66 | 1015.8 |
| 20260507014051 | 19 | 305 | 4.8 | 14.5 | 0.00 | 0.00 | 0.00 | 65 | 1015.8 |
| 20260507013547 | 20 | 296 | 8.0 | 14.5 | 0.00 | 0.00 | 0.00 | 65 | 1015.8 |
| 20260507012754 | 20 | 327 | 9.7 | 14.5 | 0.00 | 0.00 | 0.00 | 65 | 1015.8 |
| 20260507012255 | 20 | 320 | 8.0 | 16.1 | 0.00 | 0.00 | 0.00 | 66 | 1015.7 |
| 20260507011754 | 20 | 326 | 8.0 | 16.1 | 0.00 | 0.00 | 0.00 | 66 | 1015.6 |
| 20260507011254 | 20 | 281 | 9.7 | 17.7 | 0.00 | 0.00 | 0.00 | 66 | 1015.7 |
| 20260507010754 | 20 | 293 | 8.0 | 17.7 | 0.00 | 0.00 | 0.00 | 68 | 1015.7 |
| 20260507010549 | 20 | 295 | 6.4 | 16.1 | 0.00 | 0.00 | 0.00 | 68 | 1015.6 |
| 20260507010052 | 20 | 268 | 6.4 | 17.7 | 0.00 | 0.00 | 0.00 | 68 | 1015.7 |
| 20260507005550 | 20 | 238 | 9.7 | 17.7 | 0.00 | 0.00 | 0.00 | 67 | 1015.6 |
| 20260507004755 | 20 | 289 | 9.7 | 19.3 | 0.00 | 0.00 | 0.00 | 67 | 1015.7 |
| 20260507004253 | 20 | 316 | 8.0 | 19.3 | 0.00 | 0.00 | 0.00 | 68 | 1015.6 |
| 20260507003752 | 20 | 269 | 9.7 | 19.3 | 0.00 | 0.00 | 0.00 | 67 | 1015.6 |
| 20260507003252 | 20 | 265 | 8.0 | 19.3 | 0.00 | 0.00 | 0.00 | 68 | 1015.6 |
| 20260507002754 | 20 | 258 | 8.0 | 19.3 | 0.00 | 0.00 | 0.00 | 66 | 1015.6 |
| 20260507002548 | 20 | 281 | 6.4 | 19.3 | 0.00 | 0.00 | 0.00 | 67 | 1015.5 |
| 20260507001753 | 20 | 310 | 12.9 | 20.9 | 0.00 | 0.00 | 0.00 | 66 | 1015.4 |
| 20260507001252 | 20 | 300 | 8.0 | 20.9 | 0.00 | 0.00 | 0.00 | 65 | 1015.5 |
| 20260507000753 | 20 | 309 | 6.4 | 19.3 | 0.00 | 0.00 | 0.00 | 63 | 1015.4 |
| 20260507000251 | 20 | 234 | 12.9 | 19.3 | 0.00 | 0.00 | 0.00 | 64 | 1015.4 |
| 20260506235752 | 21 | 234 | 9.7 | 17.7 | 0.00 | 0.00 | 0.00 | 61 | 1015.3 |
| 20260506235547 | 21 | 278 | 9.7 | 22.5 | 0.00 | 0.00 | 0.00 | 61 | 1015.3 |
| 20260506234752 | 21 | 292 | 8.0 | 22.5 | 0.00 | 0.00 | 0.00 | 60 | 1015.4 |
| 20260506234251 | 21 | 261 | 6.4 | 19.3 | 0.00 | 0.00 | 0.00 | 60 | 1015.3 |
| 20260506233752 | 21 | 314 | 11.3 | 20.9 | 0.00 | 0.00 | 0.00 | 61 | 1015.3 |
| 20260506233251 | 20 | 316 | 8.0 | 20.9 | 0.00 | 0.00 | 0.00 | 61 | 1015.3 |
| 20260506232750 | 21 | 289 | 9.7 | 19.3 | 0.00 | 0.00 | 0.00 | 62 | 1015.3 |
| 20260506232252 | 20 | 305 | 9.7 | 20.9 | 0.00 | 0.00 | 0.00 | 64 | 1015.5 |
| 20260506232046 | 21 | 302 | 12.9 | 20.9 | 0.00 | 0.00 | 0.00 | 62 | 1015.4 |
| 20260506231549 | 21 | 337 | 11.3 | 20.9 | 0.00 | 0.00 | 0.00 | 63 | 1015.5 |
| 20260506230845 | 21 | 317 | 6.4 | 20.9 | 0.00 | 0.00 | 0.00 | 63 | 1015.5 |
| 20260506230830 | 21 | 271 | 11.3 | 20.9 | 0.00 | 0.00 | 0.00 | 61 | 1015.5 |
| 20260506225751 | 21 | 243 | 11.3 | 20.9 | 0.00 | 0.00 | 0.00 | 63 | 1015.5 |
| 20260506225251 | 21 | 324 | 9.7 | 19.3 | 0.00 | 0.00 | 0.00 | 61 | 1015.6 |
| 20260506224846 | 21 | 279 | 11.3 | 20.9 | 0.00 | 0.00 | 0.00 | 63 | 1015.8 |
| 20260506224828 | 21 | 288 | 14.5 | 20.9 | 0.00 | 0.00 | 0.00 | 63 | 1015.6 |
| 20260506223840 | 21 | 300 | 12.9 | 20.9 | 0.00 | 0.00 | 0.00 | 61 | 1015.7 |
| 20260506223824 | 21 | 233 | 9.7 | 20.9 | 0.00 | 0.00 | 0.00 | 63 | 1015.7 |
| 20260506222750 | 21 | 313 | 9.7 | 24.1 | 0.00 | 0.00 | 0.00 | 62 | 1015.8 |
| 20260506222546 | 21 | 300 | 14.5 | 24.1 | 0.00 | 0.00 | 0.00 | 62 | 1015.8 |
| 20260506221749 | 21 | 307 | 11.3 | 19.3 | 0.00 | 0.00 | 0.00 | 61 | 1015.8 |
| 20260506221249 | 21 | 0 | 11.3 | 20.9 | 0.00 | 0.00 | 0.00 | 60 | 1015.8 |
| 20260506220750 | 21 | 312 | 12.9 | 20.9 | 0.00 | 0.00 | 0.00 | 61 | 1015.8 |
| 20260506220250 | 21 | 312 | 8.0 | 22.5 | 0.00 | 0.00 | 0.00 | 61 | 1015.9 |
| 20260506215749 | 21 | 254 | 11.3 | 22.5 | 0.00 | 0.00 | 0.00 | 61 | 1015.9 |
| 20260506215249 | 21 | 314 | 11.3 | 20.9 | 0.00 | 0.00 | 0.00 | 62 | 1016.0 |
| 20260506214749 | 21 | 266 | 12.9 | 22.5 | 0.00 | 0.00 | 0.00 | 62 | 1016.1 |
| 20260506214249 | 21 | 285 | 11.3 | 22.5 | 0.00 | 0.00 | 0.00 | 61 | 1016.1 |
| 20260506213749 | 21 | 281 | 9.7 | 27.4 | 0.00 | 0.00 | 0.00 | 59 | 1016.1 |
| 20260506213248 | 21 | 340 | 12.9 | 27.4 | 0.00 | 0.00 | 0.00 | 59 | 1016.1 |
| 20260506212748 | 21 | 303 | 8.0 | 22.5 | 0.00 | 0.00 | 0.00 | 60 | 1016.1 |
| 20260506212247 | 22 | 300 | 14.5 | 22.5 | 0.00 | 0.00 | 0.00 | 59 | 1016.1 |
| 20260506211748 | 22 | 261 | 9.7 | 20.9 | 0.00 | 0.00 | 0.00 | 59 | 1016.1 |
| 20260506211248 | 22 | 286 | 14.5 | 20.9 | 0.00 | 0.00 | 0.00 | 56 | 1016.1 |
| 20260506210748 | 22 | 289 | 11.3 | 22.5 | 0.00 | 0.00 | 0.00 | 57 | 1016.1 |
| 20260506210249 | 21 | 331 | 12.9 | 24.1 | 0.00 | 0.00 | 0.00 | 58 | 1016.2 |
| 20260506205748 | 22 | 265 | 12.9 | 24.1 | 0.00 | 0.00 | 0.00 | 58 | 1016.3 |
| 20260506205339 | 21 | 258 | 11.3 | 22.5 | 0.00 | 0.00 | 0.00 | 61 | 1016.3 |
| 20260506205322 | 21 | 317 | 11.3 | 20.9 | 0.00 | 0.00 | 0.00 | 60 | 1016.2 |
| 20260506204247 | 21 | 327 | 11.3 | 22.5 | 0.00 | 0.00 | 0.00 | 60 | 1016.1 |
| 20260506204042 | 22 | 298 | 9.7 | 19.3 | 0.00 | 0.00 | 0.00 | 59 | 1016.3 |
| 20260506203247 | 22 | 237 | 11.3 | 20.9 | 0.00 | 0.00 | 0.00 | 59 | 1016.3 |
| 20260506202746 | 21 | 313 | 14.5 | 22.5 | 0.00 | 0.00 | 0.00 | 60 | 1016.3 |
| 20260506202247 | 21 | 0 | 12.9 | 22.5 | 0.00 | 0.00 | 0.00 | 60 | 1016.4 |
| 20260506201745 | 21 | 305 | 12.9 | 20.9 | 0.00 | 0.00 | 0.00 | 60 | 1016.5 |
| 20260506201246 | 21 | 296 | 11.3 | 20.9 | 0.00 | 0.00 | 0.00 | 60 | 1016.4 |
| 20260506201133 | 22 | 307 | 8.0 | 20.9 | 0.00 | 0.00 | 0.00 | 60 | 1016.4 |
| 20260506201128 | 21 | 307 | 14.5 | 20.9 | 0.00 | 0.00 | 0.00 | 60 | 1016.4 |
| 20260506195746 | 22 | 257 | 11.3 | 25.7 | 0.00 | 0.00 | 0.00 | 59 | 1016.5 |
| 20260506195246 | 22 | 305 | 14.5 | 25.7 | 0.00 | 0.00 | 0.00 | 59 | 1016.6 |
| 20260506194746 | 22 | 268 | 9.7 | 17.7 | 0.00 | 0.00 | 0.00 | 59 | 1016.6 |
| 20260506194236 | 21 | 265 | 8.0 | 20.9 | 0.00 | 0.00 | 0.00 | 59 | 1016.8 |
| 20260506193735 | 22 | 254 | 8.0 | 20.9 | 0.00 | 0.00 | 0.00 | 58 | 1016.8 |
| 20260506193235 | 22 | 293 | 9.7 | 20.9 | 0.00 | 0.00 | 0.00 | 58 | 1016.7 |
| 20260506192734 | 22 | 255 | 9.7 | 19.3 | 0.00 | 0.00 | 0.00 | 57 | 1016.7 |
| 20260506192330 | 22 | 257 | 4.8 | 22.5 | 0.00 | 0.00 | 0.00 | 57 | 1016.8 |
| 20260506192311 | 22 | 353 | 11.3 | 22.5 | 0.00 | 0.00 | 0.00 | 58 | 1016.8 |
| 20260506191232 | 22 | 217 | 9.7 | 19.3 | 0.00 | 0.00 | 0.00 | 57 | 1016.8 |
| 20260506190731 | 22 | 295 | 9.7 | 14.5 | 0.00 | 0.00 | 0.00 | 58 | 1016.8 |
| 20260506190233 | 22 | 197 | 4.8 | 19.3 | 0.00 | 0.00 | 0.00 | 58 | 1016.8 |
| 20260506185731 | 21 | 281 | 8.0 | 19.3 | 0.00 | 0.00 | 0.00 | 59 | 1016.8 |
| 20260506185231 | 22 | 299 | 11.3 | 19.3 | 0.00 | 0.00 | 0.00 | 58 | 1017.0 |
| 20260506184732 | 21 | 276 | 8.0 | 17.7 | 0.00 | 0.00 | 0.00 | 59 | 1017.0 |
| 20260506184231 | 22 | 72 | 8.0 | 14.5 | 0.00 | 0.00 | 0.00 | 57 | 1017.1 |
| 20260506183731 | 21 | 320 | 6.4 | 22.5 | 0.00 | 0.00 | 0.00 | 58 | 1017.0 |
| 20260506183231 | 21 | 279 | 9.7 | 22.5 | 0.00 | 0.00 | 0.00 | 59 | 1017.2 |
| 20260506182732 | 21 | 227 | 6.4 | 19.3 | 0.00 | 0.00 | 0.00 | 58 | 1017.2 |
| 20260506182231 | 21 | 343 | 3.2 | 19.3 | 0.00 | 0.00 | 0.00 | 58 | 1017.2 |
| 20260506181731 | 21 | 281 | 11.3 | 19.3 | 0.00 | 0.00 | 0.00 | 58 | 1017.2 |
| 20260506181232 | 21 | 48 | 3.2 | 9.7 | 0.00 | 0.00 | 0.00 | 57 | 1017.2 |
| 20260506180732 | 21 | 296 | 8.0 | 9.7 | 0.00 | 0.00 | 0.00 | 59 | 1017.3 |
| 20260506180231 | 20 | 145 | 1.6 | 16.1 | 0.00 | 0.00 | 0.00 | 57 | 1017.3 |
| 20260506175731 | 21 | 288 | 8.0 | 16.1 | 0.00 | 0.00 | 0.00 | 56 | 1017.4 |
| 20260506175232 | 21 | 292 | 6.4 | 9.7 | 0.00 | 0.00 | 0.00 | 58 | 1017.4 |
| 20260506174733 | 20 | 282 | 1.6 | 11.3 | 0.00 | 0.00 | 0.00 | 60 | 1017.4 |
| 20260506174231 | 20 | 336 | 6.4 | 16.1 | 0.00 | 0.00 | 0.00 | 59 | 1017.5 |
| 20260506174028 | 20 | 292 | 6.4 | 17.7 | 0.00 | 0.00 | 0.00 | 59 | 1017.6 |
| 20260506173230 | 20 | 31 | 4.8 | 17.7 | 0.00 | 0.00 | 0.00 | 59 | 1017.6 |
| 20260506172731 | 20 | 283 | 4.8 | 9.7 | 0.00 | 0.00 | 0.00 | 60 | 1017.6 |
| 20260506172231 | 20 | 252 | 4.8 | 11.3 | 0.00 | 0.00 | 0.00 | 61 | 1017.6 |
| 20260506171731 | 19 | 169 | 1.6 | 11.3 | 0.00 | 0.00 | 0.00 | 60 | 1017.6 |
| 20260506171230 | 20 | 347 | 1.6 | 16.1 | 0.00 | 0.00 | 0.00 | 60 | 1017.7 |
| 20260506170731 | 20 | 244 | 8.0 | 16.1 | 0.00 | 0.00 | 0.00 | 60 | 1017.7 |
| 20260506170231 | 20 | 314 | 4.8 | 11.3 | 0.00 | 0.00 | 0.00 | 61 | 1017.7 |
| 20260506170026 | 19 | 327 | 3.2 | 14.5 | 0.00 | 0.00 | 0.00 | 62 | 1017.7 |
| 20260506165231 | 19 | 319 | 4.8 | 14.5 | 0.00 | 0.00 | 0.00 | 63 | 1017.7 |
| 20260506164731 | 19 | 34 | 1.6 | 9.7 | 0.00 | 0.00 | 0.00 | 65 | 1017.6 |
| 20260506164234 | 18 | 278 | 8.0 | 11.3 | 0.00 | 0.00 | 0.00 | 65 | 1017.7 |
| 20260506164024 | 18 | 313 | 3.2 | 11.3 | 0.00 | 0.00 | 0.00 | 66 | 1017.7 |
| 20260506163308 | 18 | 224 | 3.2 | 8.0 | 0.00 | 0.00 | 0.00 | 65 | 1017.7 |
| 20260506162231 | 18 | 11 | 4.8 | 8.0 | 0.00 | 0.00 | 0.00 | 67 | 1017.7 |
| 20260506161731 | 18 | 343 | 4.8 | 8.0 | 0.00 | 0.00 | 0.00 | 68 | 1017.7 |